sensor_id;sensor_type;location;lat;lon;timestamp;P1;durP1;ratioP1;P2;durP2;ratioP2
16828;SDS011;8531;48.078;11.968;2023-08-30T00:01:33;8.15;;;7.35;;
16828;SDS011;8531;48.078;11.968;2023-08-30T00:03:59;7.30;;;6.70;;
16828;SDS011;8531;48.078;11.968;2023-08-30T00:06:25;7.40;;;6.80;;
16828;SDS011;8531;48.078;11.968;2023-08-30T00:08:51;8.15;;;7.45;;
16828;SDS011;8531;48.078;11.968;2023-08-30T00:11:16;7.38;;;6.75;;
16828;SDS011;8531;48.078;11.968;2023-08-30T00:13:42;7.95;;;7.25;;
16828;SDS011;8531;48.078;11.968;2023-08-30T00:16:08;9.73;;;7.88;;
16828;SDS011;8531;48.078;11.968;2023-08-30T00:18:33;7.97;;;7.30;;
16828;SDS011;8531;48.078;11.968;2023-08-30T00:20:59;7.90;;;7.22;;
16828;SDS011;8531;48.078;11.968;2023-08-30T00:23:25;7.47;;;6.82;;
16828;SDS011;8531;48.078;11.968;2023-08-30T00:25:50;7.75;;;7.15;;
16828;SDS011;8531;48.078;11.968;2023-08-30T00:28:16;7.97;;;7.28;;
16828;SDS011;8531;48.078;11.968;2023-08-30T00:30:42;8.85;;;7.95;;
16828;SDS011;8531;48.078;11.968;2023-08-30T00:33:07;8.63;;;7.93;;
16828;SDS011;8531;48.078;11.968;2023-08-30T00:35:33;8.10;;;7.43;;
16828;SDS011;8531;48.078;11.968;2023-08-30T00:37:59;7.85;;;7.15;;
16828;SDS011;8531;48.078;11.968;2023-08-30T00:40:24;6.90;;;6.30;;
16828;SDS011;8531;48.078;11.968;2023-08-30T00:42:50;7.15;;;6.55;;
16828;SDS011;8531;48.078;11.968;2023-08-30T00:45:16;7.88;;;7.18;;
16828;SDS011;8531;48.078;11.968;2023-08-30T00:47:42;8.35;;;7.53;;
16828;SDS011;8531;48.078;11.968;2023-08-30T00:50:08;7.68;;;6.80;;
16828;SDS011;8531;48.078;11.968;2023-08-30T00:52:34;8.35;;;6.28;;
16828;SDS011;8531;48.078;11.968;2023-08-30T00:55:00;7.63;;;6.97;;
16828;SDS011;8531;48.078;11.968;2023-08-30T00:57:26;9.90;;;7.57;;
16828;SDS011;8531;48.078;11.968;2023-08-30T00:59:52;8.45;;;7.05;;
16828;SDS011;8531;48.078;11.968;2023-08-30T01:02:19;8.05;;;7.25;;
16828;SDS011;8531;48.078;11.968;2023-08-30T01:04:45;8.38;;;7.57;;
16828;SDS011;8531;48.078;11.968;2023-08-30T01:07:11;7.45;;;6.85;;
16828;SDS011;8531;48.078;11.968;2023-08-30T01:09:37;10.18;;;9.18;;
16828;SDS011;8531;48.078;11.968;2023-08-30T01:13:04;7.75;;;7.05;;
16828;SDS011;8531;48.078;11.968;2023-08-30T01:15:21;7.70;;;7.07;;
16828;SDS011;8531;48.078;11.968;2023-08-30T01:17:48;8.52;;;7.78;;
16828;SDS011;8531;48.078;11.968;2023-08-30T01:20:17;7.50;;;6.88;;
16828;SDS011;8531;48.078;11.968;2023-08-30T01:25:32;8.10;;;7.30;;
16828;SDS011;8531;48.078;11.968;2023-08-30T01:28:03;8.35;;;7.53;;
16828;SDS011;8531;48.078;11.968;2023-08-30T01:30:31;8.48;;;7.75;;
16828;SDS011;8531;48.078;11.968;2023-08-30T01:32:59;8.43;;;7.63;;
16828;SDS011;8531;48.078;11.968;2023-08-30T01:35:26;8.27;;;7.47;;
16828;SDS011;8531;48.078;11.968;2023-08-30T01:37:57;9.35;;;8.45;;
16828;SDS011;8531;48.078;11.968;2023-08-30T01:40:24;8.73;;;7.93;;
16828;SDS011;8531;48.078;11.968;2023-08-30T01:42:52;9.63;;;8.73;;
16828;SDS011;8531;48.078;11.968;2023-08-30T01:45:18;9.43;;;8.63;;
16828;SDS011;8531;48.078;11.968;2023-08-30T01:47:46;10.68;;;9.68;;
16828;SDS011;8531;48.078;11.968;2023-08-30T01:50:13;9.80;;;8.90;;
16828;SDS011;8531;48.078;11.968;2023-08-30T01:52:41;10.10;;;9.13;;
16828;SDS011;8531;48.078;11.968;2023-08-30T01:55:07;9.65;;;8.75;;
16828;SDS011;8531;48.078;11.968;2023-08-30T01:57:35;10.10;;;9.20;;
16828;SDS011;8531;48.078;11.968;2023-08-30T02:00:01;9.45;;;8.55;;
16828;SDS011;8531;48.078;11.968;2023-08-30T02:02:29;8.85;;;7.95;;
16828;SDS011;8531;48.078;11.968;2023-08-30T02:04:55;8.95;;;8.15;;
16828;SDS011;8531;48.078;11.968;2023-08-30T02:07:23;9.35;;;8.48;;
16828;SDS011;8531;48.078;11.968;2023-08-30T02:10:00;9.93;;;9.02;;
16828;SDS011;8531;48.078;11.968;2023-08-30T02:12:30;9.55;;;8.65;;
16828;SDS011;8531;48.078;11.968;2023-08-30T02:14:59;9.25;;;8.38;;
16828;SDS011;8531;48.078;11.968;2023-08-30T02:17:27;9.30;;;8.43;;
16828;SDS011;8531;48.078;11.968;2023-08-30T02:19:55;9.13;;;8.32;;
16828;SDS011;8531;48.078;11.968;2023-08-30T02:22:21;8.65;;;7.75;;
16828;SDS011;8531;48.078;11.968;2023-08-30T02:24:46;8.80;;;8.00;;
16828;SDS011;8531;48.078;11.968;2023-08-30T02:27:12;8.63;;;7.82;;
16828;SDS011;8531;48.078;11.968;2023-08-30T02:29:38;8.20;;;7.50;;
16828;SDS011;8531;48.078;11.968;2023-08-30T02:32:04;8.93;;;7.68;;
16828;SDS011;8531;48.078;11.968;2023-08-30T02:34:30;7.63;;;6.93;;
16828;SDS011;8531;48.078;11.968;2023-08-30T02:36:55;8.90;;;8.00;;
16828;SDS011;8531;48.078;11.968;2023-08-30T02:39:21;7.68;;;7.00;;
16828;SDS011;8531;48.078;11.968;2023-08-30T02:41:47;8.70;;;7.85;;
16828;SDS011;8531;48.078;11.968;2023-08-30T02:44:12;8.18;;;7.47;;
16828;SDS011;8531;48.078;11.968;2023-08-30T02:46:38;8.25;;;7.45;;
16828;SDS011;8531;48.078;11.968;2023-08-30T02:49:04;8.52;;;7.75;;
16828;SDS011;8531;48.078;11.968;2023-08-30T02:51:31;8.55;;;7.70;;
16828;SDS011;8531;48.078;11.968;2023-08-30T02:53:56;7.80;;;7.10;;
16828;SDS011;8531;48.078;11.968;2023-08-30T02:56:22;8.50;;;6.68;;
16828;SDS011;8531;48.078;11.968;2023-08-30T02:58:48;7.78;;;7.07;;
16828;SDS011;8531;48.078;11.968;2023-08-30T03:01:13;7.53;;;6.90;;
16828;SDS011;8531;48.078;11.968;2023-08-30T03:03:39;7.93;;;7.30;;
16828;SDS011;8531;48.078;11.968;2023-08-30T03:06:05;9.05;;;7.82;;
16828;SDS011;8531;48.078;11.968;2023-08-30T03:08:30;8.00;;;7.30;;
16828;SDS011;8531;48.078;11.968;2023-08-30T03:11:07;7.65;;;6.95;;
16828;SDS011;8531;48.078;11.968;2023-08-30T03:13:33;7.97;;;7.28;;
16828;SDS011;8531;48.078;11.968;2023-08-30T03:15:59;8.68;;;7.55;;
16828;SDS011;8531;48.078;11.968;2023-08-30T03:18:25;8.43;;;7.63;;
16828;SDS011;8531;48.078;11.968;2023-08-30T03:20:59;7.28;;;6.68;;
16828;SDS011;8531;48.078;11.968;2023-08-30T03:23:26;7.70;;;7.00;;
16828;SDS011;8531;48.078;11.968;2023-08-30T03:25:52;7.53;;;6.93;;
16828;SDS011;8531;48.078;11.968;2023-08-30T03:28:18;7.38;;;6.68;;
16828;SDS011;8531;48.078;11.968;2023-08-30T03:30:43;8.18;;;7.40;;
16828;SDS011;8531;48.078;11.968;2023-08-30T03:33:09;8.00;;;7.20;;
16828;SDS011;8531;48.078;11.968;2023-08-30T03:35:35;8.38;;;7.57;;
16828;SDS011;8531;48.078;11.968;2023-08-30T03:38:00;7.90;;;7.20;;
16828;SDS011;8531;48.078;11.968;2023-08-30T03:40:26;7.70;;;7.00;;
16828;SDS011;8531;48.078;11.968;2023-08-30T03:42:52;6.93;;;6.32;;
16828;SDS011;8531;48.078;11.968;2023-08-30T03:45:18;7.10;;;6.50;;
16828;SDS011;8531;48.078;11.968;2023-08-30T03:47:43;7.15;;;6.55;;
16828;SDS011;8531;48.078;11.968;2023-08-30T03:50:09;7.70;;;6.90;;
16828;SDS011;8531;48.078;11.968;2023-08-30T03:52:35;6.95;;;6.35;;
16828;SDS011;8531;48.078;11.968;2023-08-30T03:55:01;7.85;;;7.15;;
16828;SDS011;8531;48.078;11.968;2023-08-30T03:57:27;6.85;;;6.03;;
16828;SDS011;8531;48.078;11.968;2023-08-30T03:59:52;7.20;;;6.57;;
16828;SDS011;8531;48.078;11.968;2023-08-30T04:02:18;6.93;;;6.32;;
16828;SDS011;8531;48.078;11.968;2023-08-30T04:04:46;6.78;;;6.18;;
16828;SDS011;8531;48.078;11.968;2023-08-30T04:07:12;6.80;;;5.57;;
16828;SDS011;8531;48.078;11.968;2023-08-30T04:09:38;6.75;;;6.15;;
16828;SDS011;8531;48.078;11.968;2023-08-30T04:12:04;6.60;;;6.00;;
16828;SDS011;8531;48.078;11.968;2023-08-30T04:14:30;6.63;;;6.07;;
16828;SDS011;8531;48.078;11.968;2023-08-30T04:16:56;6.55;;;5.47;;
16828;SDS011;8531;48.078;11.968;2023-08-30T04:19:22;6.57;;;5.97;;
16828;SDS011;8531;48.078;11.968;2023-08-30T04:21:47;6.47;;;5.88;;
16828;SDS011;8531;48.078;11.968;2023-08-30T04:24:14;7.50;;;6.13;;
16828;SDS011;8531;48.078;11.968;2023-08-30T04:26:40;5.93;;;5.43;;
16828;SDS011;8531;48.078;11.968;2023-08-30T04:29:06;6.28;;;5.60;;
16828;SDS011;8531;48.078;11.968;2023-08-30T04:31:32;6.03;;;5.53;;
16828;SDS011;8531;48.078;11.968;2023-08-30T04:33:57;7.13;;;6.43;;
16828;SDS011;8531;48.078;11.968;2023-08-30T04:36:23;5.80;;;5.30;;
16828;SDS011;8531;48.078;11.968;2023-08-30T04:38:48;5.20;;;4.72;;
16828;SDS011;8531;48.078;11.968;2023-08-30T04:41:14;5.43;;;4.93;;
16828;SDS011;8531;48.078;11.968;2023-08-30T04:43:40;6.22;;;5.68;;
16828;SDS011;8531;48.078;11.968;2023-08-30T04:46:05;5.30;;;4.90;;
16828;SDS011;8531;48.078;11.968;2023-08-30T04:48:31;5.20;;;4.70;;
16828;SDS011;8531;48.078;11.968;2023-08-30T04:51:03;4.10;;;3.80;;
16828;SDS011;8531;48.078;11.968;2023-08-30T04:53:29;4.95;;;4.50;;
16828;SDS011;8531;48.078;11.968;2023-08-30T04:55:55;5.05;;;4.65;;
16828;SDS011;8531;48.078;11.968;2023-08-30T04:58:21;5.47;;;5.03;;
16828;SDS011;8531;48.078;11.968;2023-08-30T05:00:47;4.80;;;4.43;;
16828;SDS011;8531;48.078;11.968;2023-08-30T05:03:12;4.28;;;3.88;;
16828;SDS011;8531;48.078;11.968;2023-08-30T05:05:38;5.32;;;4.88;;
16828;SDS011;8531;48.078;11.968;2023-08-30T05:08:04;5.57;;;5.03;;
16828;SDS011;8531;48.078;11.968;2023-08-30T05:10:30;5.53;;;4.80;;
16828;SDS011;8531;48.078;11.968;2023-08-30T05:12:57;5.00;;;4.50;;
16828;SDS011;8531;48.078;11.968;2023-08-30T05:15:22;5.43;;;4.90;;
16828;SDS011;8531;48.078;11.968;2023-08-30T05:17:48;4.85;;;4.35;;
16828;SDS011;8531;48.078;11.968;2023-08-30T05:20:14;4.55;;;4.15;;
16828;SDS011;8531;48.078;11.968;2023-08-30T05:22:39;4.65;;;4.25;;
16828;SDS011;8531;48.078;11.968;2023-08-30T05:25:05;4.90;;;4.40;;
16828;SDS011;8531;48.078;11.968;2023-08-30T05:27:31;4.70;;;4.30;;
16828;SDS011;8531;48.078;11.968;2023-08-30T05:29:57;4.40;;;4.03;;
16828;SDS011;8531;48.078;11.968;2023-08-30T05:32:22;4.40;;;4.00;;
16828;SDS011;8531;48.078;11.968;2023-08-30T05:34:48;4.30;;;3.90;;
16828;SDS011;8531;48.078;11.968;2023-08-30T05:37:14;3.80;;;3.50;;
16828;SDS011;8531;48.078;11.968;2023-08-30T05:39:39;4.80;;;4.20;;
16828;SDS011;8531;48.078;11.968;2023-08-30T05:42:05;4.32;;;3.92;;
16828;SDS011;8531;48.078;11.968;2023-08-30T05:44:31;4.57;;;4.18;;
16828;SDS011;8531;48.078;11.968;2023-08-30T05:46:56;4.60;;;4.20;;
16828;SDS011;8531;48.078;11.968;2023-08-30T05:49:22;4.63;;;4.13;;
16828;SDS011;8531;48.078;11.968;2023-08-30T05:51:48;4.38;;;3.92;;
16828;SDS011;8531;48.078;11.968;2023-08-30T05:54:13;4.03;;;3.70;;
16828;SDS011;8531;48.078;11.968;2023-08-30T05:56:39;5.00;;;4.50;;
16828;SDS011;8531;48.078;11.968;2023-08-30T05:59:06;4.97;;;4.15;;
16828;SDS011;8531;48.078;11.968;2023-08-30T06:01:32;4.70;;;4.30;;
16828;SDS011;8531;48.078;11.968;2023-08-30T06:03:58;4.50;;;4.10;;
16828;SDS011;8531;48.078;11.968;2023-08-30T06:06:24;4.70;;;4.30;;
16828;SDS011;8531;48.078;11.968;2023-08-30T06:08:49;4.40;;;4.00;;
16828;SDS011;8531;48.078;11.968;2023-08-30T06:11:15;4.38;;;4.00;;
16828;SDS011;8531;48.078;11.968;2023-08-30T06:13:41;4.50;;;4.10;;
16828;SDS011;8531;48.078;11.968;2023-08-30T06:16:06;4.70;;;4.30;;
16828;SDS011;8531;48.078;11.968;2023-08-30T06:18:32;4.85;;;4.45;;
16828;SDS011;8531;48.078;11.968;2023-08-30T06:20:58;5.43;;;4.35;;
16828;SDS011;8531;48.078;11.968;2023-08-30T06:23:24;5.43;;;4.93;;
16828;SDS011;8531;48.078;11.968;2023-08-30T06:25:53;5.43;;;4.93;;
16828;SDS011;8531;48.078;11.968;2023-08-30T06:28:20;4.78;;;4.35;;
16828;SDS011;8531;48.078;11.968;2023-08-30T06:30:45;5.65;;;5.00;;
16828;SDS011;8531;48.078;11.968;2023-08-30T06:33:11;5.40;;;4.10;;
16828;SDS011;8531;48.078;11.968;2023-08-30T06:35:37;6.13;;;5.05;;
16828;SDS011;8531;48.078;11.968;2023-08-30T06:38:04;5.75;;;5.25;;
16828;SDS011;8531;48.078;11.968;2023-08-30T06:40:30;5.50;;;5.00;;
16828;SDS011;8531;48.078;11.968;2023-08-30T06:42:56;5.22;;;4.72;;
16828;SDS011;8531;48.078;11.968;2023-08-30T06:45:24;4.90;;;4.43;;
16828;SDS011;8531;48.078;11.968;2023-08-30T06:47:49;6.35;;;5.22;;
16828;SDS011;8531;48.078;11.968;2023-08-30T06:50:17;6.30;;;5.70;;
16828;SDS011;8531;48.078;11.968;2023-08-30T06:52:42;5.43;;;4.72;;
16828;SDS011;8531;48.078;11.968;2023-08-30T06:55:08;5.85;;;5.20;;
16828;SDS011;8531;48.078;11.968;2023-08-30T06:57:34;5.18;;;4.57;;
16828;SDS011;8531;48.078;11.968;2023-08-30T07:00:00;5.55;;;5.05;;
16828;SDS011;8531;48.078;11.968;2023-08-30T07:02:32;4.80;;;4.40;;
16828;SDS011;8531;48.078;11.968;2023-08-30T07:05:02;5.80;;;5.20;;
16828;SDS011;8531;48.078;11.968;2023-08-30T07:07:29;5.47;;;4.97;;
16828;SDS011;8531;48.078;11.968;2023-08-30T07:09:55;5.57;;;5.00;;
16828;SDS011;8531;48.078;11.968;2023-08-30T07:12:21;6.88;;;5.60;;
16828;SDS011;8531;48.078;11.968;2023-08-30T07:14:47;6.07;;;5.35;;
16828;SDS011;8531;48.078;11.968;2023-08-30T07:17:12;6.50;;;4.78;;
16828;SDS011;8531;48.078;11.968;2023-08-30T07:19:38;6.65;;;5.88;;
16828;SDS011;8531;48.078;11.968;2023-08-30T07:22:04;7.32;;;5.70;;
16828;SDS011;8531;48.078;11.968;2023-08-30T07:24:30;9.55;;;8.65;;
16828;SDS011;8531;48.078;11.968;2023-08-30T07:26:55;6.72;;;5.65;;
16828;SDS011;8531;48.078;11.968;2023-08-30T07:29:21;6.22;;;5.63;;
16828;SDS011;8531;48.078;11.968;2023-08-30T07:31:47;6.25;;;5.70;;
16828;SDS011;8531;48.078;11.968;2023-08-30T07:34:13;5.85;;;5.18;;
16828;SDS011;8531;48.078;11.968;2023-08-30T07:36:38;7.03;;;5.90;;
16828;SDS011;8531;48.078;11.968;2023-08-30T07:39:04;5.45;;;5.05;;
16828;SDS011;8531;48.078;11.968;2023-08-30T07:41:30;6.45;;;5.45;;
16828;SDS011;8531;48.078;11.968;2023-08-30T07:43:58;6.15;;;5.65;;
16828;SDS011;8531;48.078;11.968;2023-08-30T07:46:24;5.53;;;5.03;;
16828;SDS011;8531;48.078;11.968;2023-08-30T07:48:51;6.05;;;5.28;;
16828;SDS011;8531;48.078;11.968;2023-08-30T07:51:16;5.82;;;5.32;;
16828;SDS011;8531;48.078;11.968;2023-08-30T07:53:42;5.68;;;5.18;;
16828;SDS011;8531;48.078;11.968;2023-08-30T07:56:08;5.20;;;4.80;;
16828;SDS011;8531;48.078;11.968;2023-08-30T07:58:33;5.25;;;4.75;;
16828;SDS011;8531;48.078;11.968;2023-08-30T08:00:59;5.78;;;5.10;;
16828;SDS011;8531;48.078;11.968;2023-08-30T08:03:25;6.25;;;4.43;;
16828;SDS011;8531;48.078;11.968;2023-08-30T08:05:51;5.05;;;4.65;;
16828;SDS011;8531;48.078;11.968;2023-08-30T08:08:16;5.53;;;4.70;;
16828;SDS011;8531;48.078;11.968;2023-08-30T08:10:43;5.10;;;4.60;;
16828;SDS011;8531;48.078;11.968;2023-08-30T08:13:09;5.57;;;5.07;;
16828;SDS011;8531;48.078;11.968;2023-08-30T08:15:35;5.97;;;5.35;;
16828;SDS011;8531;48.078;11.968;2023-08-30T08:18:02;5.13;;;4.22;;
16828;SDS011;8531;48.078;11.968;2023-08-30T08:20:29;5.10;;;4.70;;
16828;SDS011;8531;48.078;11.968;2023-08-30T08:22:56;6.13;;;4.60;;
16828;SDS011;8531;48.078;11.968;2023-08-30T08:25:22;4.82;;;4.40;;
16828;SDS011;8531;48.078;11.968;2023-08-30T08:27:49;7.30;;;4.88;;
16828;SDS011;8531;48.078;11.968;2023-08-30T08:30:16;4.40;;;4.07;;
16828;SDS011;8531;48.078;11.968;2023-08-30T08:32:41;7.95;;;4.90;;
16828;SDS011;8531;48.078;11.968;2023-08-30T08:35:08;4.88;;;4.38;;
16828;SDS011;8531;48.078;11.968;2023-08-30T08:37:33;5.20;;;4.72;;
16828;SDS011;8531;48.078;11.968;2023-08-30T08:39:59;4.85;;;4.45;;
16828;SDS011;8531;48.078;11.968;2023-08-30T08:42:28;8.25;;;4.38;;
16828;SDS011;8531;48.078;11.968;2023-08-30T08:44:54;4.20;;;3.90;;
16828;SDS011;8531;48.078;11.968;2023-08-30T08:47:22;5.13;;;4.72;;
16828;SDS011;8531;48.078;11.968;2023-08-30T08:49:48;4.03;;;3.30;;
16828;SDS011;8531;48.078;11.968;2023-08-30T08:52:14;4.60;;;3.50;;
16828;SDS011;8531;48.078;11.968;2023-08-30T08:54:40;3.28;;;3.08;;
16828;SDS011;8531;48.078;11.968;2023-08-30T08:57:07;3.70;;;3.40;;
16828;SDS011;8531;48.078;11.968;2023-08-30T08:59:33;5.97;;;3.50;;
16828;SDS011;8531;48.078;11.968;2023-08-30T09:02:02;4.32;;;3.45;;
16828;SDS011;8531;48.078;11.968;2023-08-30T09:04:29;3.25;;;3.00;;
16828;SDS011;8531;48.078;11.968;2023-08-30T09:06:56;3.63;;;3.33;;
16828;SDS011;8531;48.078;11.968;2023-08-30T09:09:23;3.53;;;3.22;;
16828;SDS011;8531;48.078;11.968;2023-08-30T09:11:49;5.00;;;4.57;;
16828;SDS011;8531;48.078;11.968;2023-08-30T09:14:15;3.88;;;3.58;;
16828;SDS011;8531;48.078;11.968;2023-08-30T09:16:40;3.00;;;2.80;;
16828;SDS011;8531;48.078;11.968;2023-08-30T09:19:06;3.92;;;3.50;;
16828;SDS011;8531;48.078;11.968;2023-08-30T09:21:32;3.15;;;2.70;;
16828;SDS011;8531;48.078;11.968;2023-08-30T09:26:24;3.17;;;2.70;;
16828;SDS011;8531;48.078;11.968;2023-08-30T09:28:50;2.55;;;2.35;;
16828;SDS011;8531;48.078;11.968;2023-08-30T09:31:19;3.30;;;3.00;;
16828;SDS011;8531;48.078;11.968;2023-08-30T09:33:45;2.78;;;2.45;;
16828;SDS011;8531;48.078;11.968;2023-08-30T09:36:17;2.33;;;2.13;;
16828;SDS011;8531;48.078;11.968;2023-08-30T09:38:47;2.50;;;2.30;;
16828;SDS011;8531;48.078;11.968;2023-08-30T09:41:14;2.30;;;2.10;;
16828;SDS011;8531;48.078;11.968;2023-08-30T09:43:43;2.33;;;2.13;;
16828;SDS011;8531;48.078;11.968;2023-08-30T09:46:09;3.28;;;2.90;;
16828;SDS011;8531;48.078;11.968;2023-08-30T09:48:34;2.13;;;1.92;;
16828;SDS011;8531;48.078;11.968;2023-08-30T09:51:03;2.30;;;2.10;;
16828;SDS011;8531;48.078;11.968;2023-08-30T09:53:40;4.03;;;2.67;;
16828;SDS011;8531;48.078;11.968;2023-08-30T09:56:10;2.90;;;2.53;;
16828;SDS011;8531;48.078;11.968;2023-08-30T09:58:38;2.65;;;2.45;;
16828;SDS011;8531;48.078;11.968;2023-08-30T10:01:07;2.70;;;2.50;;
16828;SDS011;8531;48.078;11.968;2023-08-30T10:03:56;3.53;;;2.60;;
16828;SDS011;8531;48.078;11.968;2023-08-30T10:06:27;2.55;;;2.33;;
16828;SDS011;8531;48.078;11.968;2023-08-30T10:08:55;2.33;;;2.10;;
16828;SDS011;8531;48.078;11.968;2023-08-30T10:11:27;3.88;;;3.42;;
16828;SDS011;8531;48.078;11.968;2023-08-30T10:13:54;3.25;;;2.55;;
16828;SDS011;8531;48.078;11.968;2023-08-30T10:16:22;2.33;;;2.13;;
16828;SDS011;8531;48.078;11.968;2023-08-30T10:18:52;2.15;;;1.88;;
16828;SDS011;8531;48.078;11.968;2023-08-30T10:21:27;1.95;;;1.85;;
16828;SDS011;8531;48.078;11.968;2023-08-30T10:23:55;3.05;;;1.80;;
16828;SDS011;8531;48.078;11.968;2023-08-30T10:26:23;2.50;;;2.15;;
16828;SDS011;8531;48.078;11.968;2023-08-30T10:28:54;2.90;;;2.15;;
16828;SDS011;8531;48.078;11.968;2023-08-30T10:31:21;3.30;;;2.15;;
16828;SDS011;8531;48.078;11.968;2023-08-30T10:33:52;3.88;;;2.25;;
16828;SDS011;8531;48.078;11.968;2023-08-30T10:36:27;2.30;;;1.75;;
16828;SDS011;8531;48.078;11.968;2023-08-30T10:38:54;2.10;;;1.58;;
16828;SDS011;8531;48.078;11.968;2023-08-30T10:41:24;1.80;;;1.70;;
16828;SDS011;8531;48.078;11.968;2023-08-30T10:43:51;2.33;;;1.70;;
16828;SDS011;8531;48.078;11.968;2023-08-30T10:46:30;2.45;;;1.80;;
16828;SDS011;8531;48.078;11.968;2023-08-30T10:49:07;2.65;;;1.80;;
16828;SDS011;8531;48.078;11.968;2023-08-30T10:51:39;1.30;;;1.20;;
16828;SDS011;8531;48.078;11.968;2023-08-30T10:54:11;1.83;;;1.60;;
16828;SDS011;8531;48.078;11.968;2023-08-30T10:59:24;1.80;;;1.13;;
16828;SDS011;8531;48.078;11.968;2023-08-30T11:01:50;1.90;;;1.27;;
16828;SDS011;8531;48.078;11.968;2023-08-30T11:04:17;2.15;;;1.50;;
16828;SDS011;8531;48.078;11.968;2023-08-30T11:06:44;3.15;;;1.50;;
16828;SDS011;8531;48.078;11.968;2023-08-30T11:09:15;2.78;;;1.70;;
16828;SDS011;8531;48.078;11.968;2023-08-30T11:11:47;2.92;;;1.75;;
16828;SDS011;8531;48.078;11.968;2023-08-30T11:14:14;2.05;;;1.75;;
16828;SDS011;8531;48.078;11.968;2023-08-30T11:16:41;2.63;;;1.52;;
16828;SDS011;8531;48.078;11.968;2023-08-30T11:19:07;1.05;;;1.00;;
16828;SDS011;8531;48.078;11.968;2023-08-30T11:21:35;1.40;;;1.00;;
16828;SDS011;8531;48.078;11.968;2023-08-30T11:24:03;1.27;;;0.80;;
16828;SDS011;8531;48.078;11.968;2023-08-30T11:26:29;2.00;;;1.10;;
16828;SDS011;8531;48.078;11.968;2023-08-30T11:28:55;1.00;;;0.90;;
16828;SDS011;8531;48.078;11.968;2023-08-30T11:31:22;1.27;;;0.90;;
16828;SDS011;8531;48.078;11.968;2023-08-30T11:33:52;1.35;;;1.17;;
16828;SDS011;8531;48.078;11.968;2023-08-30T11:36:22;1.13;;;1.10;;
16828;SDS011;8531;48.078;11.968;2023-08-30T11:38:50;1.85;;;1.40;;
16828;SDS011;8531;48.078;11.968;2023-08-30T11:41:17;1.45;;;1.05;;
16828;SDS011;8531;48.078;11.968;2023-08-30T11:43:46;1.65;;;1.05;;
16828;SDS011;8531;48.078;11.968;2023-08-30T11:46:13;2.05;;;0.90;;
16828;SDS011;8531;48.078;11.968;2023-08-30T11:48:41;1.55;;;1.25;;
16828;SDS011;8531;48.078;11.968;2023-08-30T11:51:08;1.48;;;1.00;;
16828;SDS011;8531;48.078;11.968;2023-08-30T11:53:34;1.55;;;1.35;;
16828;SDS011;8531;48.078;11.968;2023-08-30T11:56:00;2.15;;;1.10;;
16828;SDS011;8531;48.078;11.968;2023-08-30T11:58:26;2.33;;;0.90;;
16828;SDS011;8531;48.078;11.968;2023-08-30T12:00:53;1.40;;;1.20;;
16828;SDS011;8531;48.078;11.968;2023-08-30T12:03:20;1.60;;;0.90;;
16828;SDS011;8531;48.078;11.968;2023-08-30T12:05:46;0.65;;;0.50;;
16828;SDS011;8531;48.078;11.968;2023-08-30T12:08:25;1.70;;;0.88;;
16828;SDS011;8531;48.078;11.968;2023-08-30T12:10:53;1.42;;;0.80;;
16828;SDS011;8531;48.078;11.968;2023-08-30T12:13:23;1.63;;;1.02;;
16828;SDS011;8531;48.078;11.968;2023-08-30T12:15:56;1.73;;;0.70;;
16828;SDS011;8531;48.078;11.968;2023-08-30T12:18:22;0.95;;;0.70;;
16828;SDS011;8531;48.078;11.968;2023-08-30T12:21:01;0.80;;;0.80;;
16828;SDS011;8531;48.078;11.968;2023-08-30T12:23:29;1.25;;;0.90;;
16828;SDS011;8531;48.078;11.968;2023-08-30T12:26:09;1.00;;;0.90;;
16828;SDS011;8531;48.078;11.968;2023-08-30T12:28:36;0.95;;;0.80;;
16828;SDS011;8531;48.078;11.968;2023-08-30T12:31:06;3.00;;;0.70;;
16828;SDS011;8531;48.078;11.968;2023-08-30T12:33:35;1.25;;;0.88;;
16828;SDS011;8531;48.078;11.968;2023-08-30T12:36:02;1.00;;;0.70;;
16828;SDS011;8531;48.078;11.968;2023-08-30T12:38:28;0.90;;;0.80;;
16828;SDS011;8531;48.078;11.968;2023-08-30T12:40:55;1.00;;;0.70;;
16828;SDS011;8531;48.078;11.968;2023-08-30T12:43:21;1.35;;;0.70;;
16828;SDS011;8531;48.078;11.968;2023-08-30T12:45:48;1.02;;;0.60;;
16828;SDS011;8531;48.078;11.968;2023-08-30T12:48:15;1.20;;;0.80;;
16828;SDS011;8531;48.078;11.968;2023-08-30T12:50:43;3.42;;;0.70;;
16828;SDS011;8531;48.078;11.968;2023-08-30T12:53:10;2.17;;;0.80;;
16828;SDS011;8531;48.078;11.968;2023-08-30T12:55:36;2.05;;;0.88;;
16828;SDS011;8531;48.078;11.968;2023-08-30T12:58:05;0.70;;;0.60;;
16828;SDS011;8531;48.078;11.968;2023-08-30T13:00:32;1.13;;;0.77;;
16828;SDS011;8531;48.078;11.968;2023-08-30T13:02:58;1.00;;;0.70;;
16828;SDS011;8531;48.078;11.968;2023-08-30T13:05:24;1.40;;;1.30;;
16828;SDS011;8531;48.078;11.968;2023-08-30T13:07:50;0.80;;;0.80;;
16828;SDS011;8531;48.078;11.968;2023-08-30T13:10:16;1.50;;;0.85;;
16828;SDS011;8531;48.078;11.968;2023-08-30T13:12:42;0.63;;;0.57;;
16828;SDS011;8531;48.078;11.968;2023-08-30T13:15:08;2.08;;;0.73;;
16828;SDS011;8531;48.078;11.968;2023-08-30T13:17:34;1.55;;;0.80;;
16828;SDS011;8531;48.078;11.968;2023-08-30T13:20:00;0.93;;;0.57;;
16828;SDS011;8531;48.078;11.968;2023-08-30T13:22:28;1.23;;;0.63;;
16828;SDS011;8531;48.078;11.968;2023-08-30T13:24:54;1.33;;;0.65;;
16828;SDS011;8531;48.078;11.968;2023-08-30T13:27:23;0.50;;;0.50;;
16828;SDS011;8531;48.078;11.968;2023-08-30T13:29:49;2.45;;;0.73;;
16828;SDS011;8531;48.078;11.968;2023-08-30T13:32:15;1.08;;;0.70;;
16828;SDS011;8531;48.078;11.968;2023-08-30T13:34:40;1.38;;;1.00;;
16828;SDS011;8531;48.078;11.968;2023-08-30T13:37:10;1.30;;;0.75;;
16828;SDS011;8531;48.078;11.968;2023-08-30T13:39:37;1.77;;;1.27;;
16828;SDS011;8531;48.078;11.968;2023-08-30T13:42:06;2.10;;;1.15;;
16828;SDS011;8531;48.078;11.968;2023-08-30T13:44:32;0.85;;;0.70;;
16828;SDS011;8531;48.078;11.968;2023-08-30T13:46:58;2.40;;;0.70;;
16828;SDS011;8531;48.078;11.968;2023-08-30T13:49:24;1.90;;;0.90;;
16828;SDS011;8531;48.078;11.968;2023-08-30T13:51:49;0.63;;;0.60;;
16828;SDS011;8531;48.078;11.968;2023-08-30T13:54:15;1.35;;;0.70;;
16828;SDS011;8531;48.078;11.968;2023-08-30T13:56:41;1.23;;;0.70;;
16828;SDS011;8531;48.078;11.968;2023-08-30T13:59:07;1.02;;;0.82;;
16828;SDS011;8531;48.078;11.968;2023-08-30T14:01:32;1.52;;;0.70;;
16828;SDS011;8531;48.078;11.968;2023-08-30T14:04:00;1.17;;;0.63;;
16828;SDS011;8531;48.078;11.968;2023-08-30T14:06:26;0.90;;;0.75;;
16828;SDS011;8531;48.078;11.968;2023-08-30T14:08:51;1.10;;;0.70;;
16828;SDS011;8531;48.078;11.968;2023-08-30T14:11:18;1.45;;;0.70;;
16828;SDS011;8531;48.078;11.968;2023-08-30T14:13:44;0.80;;;0.80;;
16828;SDS011;8531;48.078;11.968;2023-08-30T14:16:10;1.00;;;0.80;;
16828;SDS011;8531;48.078;11.968;2023-08-30T14:18:36;1.13;;;1.02;;
16828;SDS011;8531;48.078;11.968;2023-08-30T14:21:02;2.08;;;0.90;;
16828;SDS011;8531;48.078;11.968;2023-08-30T14:23:28;1.40;;;0.85;;
16828;SDS011;8531;48.078;11.968;2023-08-30T14:25:55;1.08;;;0.80;;
16828;SDS011;8531;48.078;11.968;2023-08-30T14:28:27;1.00;;;0.73;;
16828;SDS011;8531;48.078;11.968;2023-08-30T14:30:53;1.35;;;0.88;;
16828;SDS011;8531;48.078;11.968;2023-08-30T14:33:19;1.20;;;1.10;;
16828;SDS011;8531;48.078;11.968;2023-08-30T14:35:45;1.65;;;1.10;;
16828;SDS011;8531;48.078;11.968;2023-08-30T14:38:11;1.85;;;0.88;;
16828;SDS011;8531;48.078;11.968;2023-08-30T14:40:37;1.30;;;1.00;;
16828;SDS011;8531;48.078;11.968;2023-08-30T14:43:03;1.73;;;0.93;;
16828;SDS011;8531;48.078;11.968;2023-08-30T14:45:29;3.20;;;1.40;;
16828;SDS011;8531;48.078;11.968;2023-08-30T14:47:56;1.50;;;1.40;;
16828;SDS011;8531;48.078;11.968;2023-08-30T14:50:22;2.08;;;1.40;;
16828;SDS011;8531;48.078;11.968;2023-08-30T14:52:48;2.00;;;1.80;;
16828;SDS011;8531;48.078;11.968;2023-08-30T14:55:15;2.45;;;1.85;;